Time;durP1;ratioP1;P1;durP2;ratioP2;P2;SDS_P1;SDS_P2;PMS_P1;PMS_P2;Temp;Humidity;BMP_temperature;BMP_pressure;BME280_temperature;BME280_humidity;BME280_pressure;Samples;Min_cycle;Max_cycle;Signal;HPM_P1;HPM_P2
2021/07/18 00:00:21;;;;;;;;;;;;;;;27.06;42.87;102623.03;4926343;29;19966;-88
2021/07/18 00:02:46;;;;;;;;;;;;;;;27.06;42.81;102616.63;4927422;29;19926;-87
2021/07/18 00:05:12;;;;;;;;;;;;;;;26.93;43.21;102614.06;4929295;29;19915;-85
2021/07/18 00:07:37;;;;;;;;;;;;;;;26.79;43.84;102618.06;4945856;29;19926;-87
2021/07/18 00:10:03;;;;;;;;;;;;;;;26.64;44.42;102613.84;4928909;29;19923;-86
2021/07/18 00:12:28;;;;;;;;;;;;;;;26.66;44.42;102617.38;4946893;29;19947;-87
2021/07/18 00:14:53;;;;;;;;;;;;;;;26.49;44.67;102619.72;4944080;29;20388;-90
2021/07/18 00:17:18;;;;;;;;;;;;;;;26.32;45.24;102612.91;4926184;29;19941;-86
2021/07/18 00:19:44;;;;;;;;;;;;;;;26.59;44.52;102605.06;4943853;29;20003;-88
2021/07/18 00:22:09;;;;;;;;;;;;;;;26.92;43.46;102608.63;4911146;29;19954;-90
2021/07/18 00:24:35;;;;;;;;;;;;;;;26.99;43.01;102604.31;4926936;29;19926;-89
2021/07/18 00:27:00;;;;;;;;;;;;;;;26.91;43.02;102601.34;4926663;29;19918;-91
2021/07/18 00:29:25;;;;;;;;;;;;;;;26.76;43.43;102604.47;4927864;29;19926;-89
2021/07/18 00:31:51;;;;;;;;;;;;;;;26.92;43.10;102603.09;4927094;29;19926;-88
2021/07/18 00:34:16;;;;;;;;;;;;;;;26.75;43.52;102597.16;4928827;29;19923;-89
2021/07/18 00:36:41;;;;;;;;;;;;;;;26.92;43.27;102597.53;4927799;29;19926;-90
2021/07/18 00:39:06;;;;;;;;;;;;;;;26.13;45.86;102602.53;4928537;29;19919;-88
2021/07/18 00:41:32;;;;;;;;;;;;;;;26.59;44.02;102597.63;4939010;29;20249;-90
2021/07/18 00:43:57;;;;;;;;;;;;;;;26.84;43.35;102593.56;4944994;28;19910;-88
2021/07/18 00:46:22;;;;;;;;;;;;;;;26.87;43.13;102600.72;4958034;29;19930;-85
2021/07/18 00:48:48;;;;;;;;;;;;;;;25.60;47.56;102608.81;4947157;29;19926;-90
2021/07/18 00:51:13;;;;;;;;;;;;;;;26.32;45.52;102606.47;4930088;29;20292;-90
2021/07/18 00:53:38;;;;;;;;;;;;;;;26.52;44.56;102600.03;4929397;29;19926;-88
2021/07/18 00:56:03;;;;;;;;;;;;;;;26.45;44.77;102595.16;4929371;29;19926;-87
2021/07/18 00:58:30;;;;;;;;;;;;;;;26.49;44.57;102591.09;4945214;29;19918;-86
2021/07/18 01:00:55;;;;;;;;;;;;;;;26.26;45.36;102607.00;4927639;29;19925;-86
2021/07/18 01:03:22;;;;;;;;;;;;;;;26.17;46.02;102609.56;4926586;29;19994;-88
2021/07/18 01:05:47;;;;;;;;;;;;;;;26.20;45.91;102613.97;4924708;29;20376;-88
2021/07/18 01:08:12;;;;;;;;;;;;;;;25.92;46.59;102602.47;4924963;29;19929;-87
2021/07/18 01:10:38;;;;;;;;;;;;;;;25.88;46.71;102602.81;4926195;29;20348;-89
2021/07/18 01:13:03;;;;;;;;;;;;;;;26.07;46.16;102600.25;4926008;29;19919;-87
2021/07/18 01:15:28;;;;;;;;;;;;;;;26.02;46.44;102605.34;4926647;29;19926;-87
2021/07/18 01:17:54;;;;;;;;;;;;;;;26.17;45.72;102597.59;4944462;29;19919;-86
2021/07/18 01:20:19;;;;;;;;;;;;;;;26.34;45.36;102593.34;4926610;29;19919;-88
2021/07/18 01:22:44;;;;;;;;;;;;;;;26.48;44.71;102590.25;4927026;29;19915;-87
2021/07/18 01:25:10;;;;;;;;;;;;;;;26.30;45.31;102602.94;4927034;29;20352;-88
2021/07/18 01:27:36;;;;;;;;;;;;;;;25.87;46.17;102590.00;4928644;29;19914;-90
2021/07/18 01:30:03;;;;;;;;;;;;;;;26.15;45.76;102582.97;4927381;29;19925;-87
2021/07/18 01:32:29;;;;;;;;;;;;;;;25.93;46.38;102579.22;4927972;29;20281;-87
2021/07/18 01:34:54;;;;;;;;;;;;;;;25.61;47.70;102574.56;4928095;29;19927;-86
2021/07/18 01:37:19;;;;;;;;;;;;;;;25.27;48.58;102582.91;4927681;29;20014;-84
2021/07/18 01:39:46;;;;;;;;;;;;;;;25.60;47.76;102578.31;4928284;29;19922;-91
2021/07/18 01:42:11;;;;;;;;;;;;;;;25.40;48.63;102573.59;4927501;29;19955;-89
2021/07/18 01:44:36;;;;;;;;;;;;;;;25.92;46.47;102571.03;4925936;29;20414;-88
2021/07/18 01:47:02;;;;;;;;;;;;;;;25.76;47.19;102571.50;4927452;29;19954;-89
2021/07/18 01:49:27;;;;;;;;;;;;;;;25.51;47.67;102581.00;4927925;29;19926;-88
2021/07/18 01:51:52;;;;;;;;;;;;;;;25.63;47.63;102572.53;4944507;29;20407;-86
2021/07/18 01:54:18;;;;;;;;;;;;;;;26.10;46.21;102579.72;4927730;29;19919;-88
2021/07/18 01:56:43;;;;;;;;;;;;;;;25.87;46.75;102573.34;4944504;29;19946;-87
2021/07/18 01:59:08;;;;;;;;;;;;;;;25.79;47.21;102574.88;4944918;29;19918;-87
2021/07/18 02:01:34;;;;;;;;;;;;;;;25.40;48.63;102568.94;4927487;29;20394;-86
2021/07/18 02:04:01;;;;;;;;;;;;;;;25.80;47.21;102578.53;4927502;29;19983;-87
2021/07/18 02:06:27;;;;;;;;;;;;;;;25.90;46.82;102573.09;4944234;29;20336;-88
2021/07/18 02:08:53;;;;;;;;;;;;;;;25.58;47.92;102573.94;4926805;29;19922;-87
2021/07/18 02:11:19;;;;;;;;;;;;;;;25.33;48.49;102581.53;4927222;29;19954;-87
2021/07/18 02:13:48;;;;;;;;;;;;;;;25.28;48.99;102572.69;4927219;29;19997;-87
2021/07/18 02:16:13;;;;;;;;;;;;;;;25.21;49.41;102568.66;4927359;29;19922;-87
2021/07/18 02:18:39;;;;;;;;;;;;;;;25.12;49.37;102568.44;4927336;29;19974;-88
2021/07/18 02:21:04;;;;;;;;;;;;;;;25.05;49.70;102572.72;4944735;29;19919;-85
2021/07/18 02:23:29;;;;;;;;;;;;;;;25.42;47.98;102577.97;4927441;29;20372;-87
2021/07/18 02:25:55;;;;;;;;;;;;;;;25.63;47.05;102569.75;4927021;29;20296;-89
2021/07/18 02:28:20;;;;;;;;;;;;;;;25.42;47.81;102568.78;4927008;29;19923;-86
2021/07/18 02:30:46;;;;;;;;;;;;;;;25.53;47.49;102567.88;4943950;29;19926;-89
2021/07/18 02:33:12;;;;;;;;;;;;;;;25.16;48.86;102566.28;4927096;29;20435;-87
2021/07/18 02:35:37;;;;;;;;;;;;;;;24.94;49.83;102572.69;4927143;29;19922;-87
2021/07/18 02:38:03;;;;;;;;;;;;;;;24.95;49.87;102567.03;4927038;29;19998;-88
2021/07/18 02:40:28;;;;;;;;;;;;;;;25.24;48.89;102573.94;4926995;29;20381;-89
2021/07/18 02:42:54;;;;;;;;;;;;;;;25.56;47.88;102565.75;4925971;29;19941;-90
2021/07/18 02:45:20;;;;;;;;;;;;;;;25.94;46.72;102563.50;4925687;29;20043;-87
2021/07/18 02:47:46;;;;;;;;;;;;;;;25.72;47.24;102570.88;4926409;29;19919;-89
2021/07/18 02:50:13;;;;;;;;;;;;;;;25.29;47.74;102568.94;4925066;29;19927;-89
2021/07/18 02:52:38;;;;;;;;;;;;;;;25.27;48.41;102570.91;4924769;29;19962;-87
2021/07/18 02:55:04;;;;;;;;;;;;;;;25.44;47.83;102562.13;4926297;29;19919;-84
2021/07/18 02:57:29;;;;;;;;;;;;;;;25.54;47.49;102559.44;4926283;29;19953;-90
2021/07/18 02:59:54;;;;;;;;;;;;;;;25.60;47.30;102564.47;4925194;29;19919;-87
2021/07/18 03:02:20;;;;;;;;;;;;;;;25.76;46.81;102564.06;4925201;29;20298;-86
2021/07/18 03:04:45;;;;;;;;;;;;;;;25.69;46.96;102560.03;4943307;29;19966;-87
2021/07/18 03:07:10;;;;;;;;;;;;;;;25.26;48.57;102561.75;4926338;29;19926;-88
2021/07/18 03:09:35;;;;;;;;;;;;;;;25.29;48.34;102557.84;4926807;29;19925;-87
2021/07/18 03:12:01;;;;;;;;;;;;;;;25.09;48.77;102557.59;4926826;29;19919;-88
2021/07/18 03:14:26;;;;;;;;;;;;;;;25.17;48.61;102553.31;4926603;29;19957;-86
2021/07/18 03:16:51;;;;;;;;;;;;;;;25.13;48.35;102552.69;4926895;29;19925;-87
2021/07/18 03:19:16;;;;;;;;;;;;;;;25.35;48.13;102546.28;4927296;29;20355;-87
2021/07/18 03:21:42;;;;;;;;;;;;;;;25.59;46.92;102547.97;4929315;29;19919;-87
2021/07/18 03:24:07;;;;;;;;;;;;;;;25.62;47.27;102543.06;4930695;29;19944;-87
2021/07/18 03:26:32;;;;;;;;;;;;;;;25.30;47.81;102548.53;4930517;29;20087;-88
2021/07/18 03:28:57;;;;;;;;;;;;;;;25.54;47.44;102548.34;4930739;29;19919;-88
2021/07/18 03:31:23;;;;;;;;;;;;;;;25.57;46.83;102550.00;4931402;29;19969;-88
2021/07/18 03:33:48;;;;;;;;;;;;;;;25.51;46.75;102540.31;4930910;29;19978;-87
2021/07/18 03:36:13;;;;;;;;;;;;;;;25.74;46.05;102545.78;4947865;29;19947;-88
2021/07/18 03:38:39;;;;;;;;;;;;;;;25.99;44.94;102544.59;4930166;29;19926;-90
2021/07/18 03:41:04;;;;;;;;;;;;;;;25.64;46.20;102540.16;4929733;29;20001;-89
2021/07/18 03:43:30;;;;;;;;;;;;;;;25.69;46.18;102545.31;4945392;29;20391;-89
2021/07/18 03:45:55;;;;;;;;;;;;;;;25.73;46.04;102538.50;4929712;29;19958;-87
2021/07/18 03:48:20;;;;;;;;;;;;;;;25.73;45.54;102550.47;4928096;29;19926;-88
2021/07/18 03:50:47;;;;;;;;;;;;;;;25.60;46.04;102536.75;4930670;29;19927;-87
2021/07/18 03:53:12;;;;;;;;;;;;;;;25.67;46.06;102539.03;4929793;29;19926;-87
2021/07/18 03:55:37;;;;;;;;;;;;;;;25.71;45.66;102540.50;4931329;29;19919;-88
2021/07/18 03:58:02;;;;;;;;;;;;;;;25.57;46.13;102538.91;4929578;29;19930;-89
2021/07/18 04:00:27;;;;;;;;;;;;;;;25.58;46.30;102546.22;4928446;29;19919;-92
2021/07/18 04:02:53;;;;;;;;;;;;;;;25.64;46.42;102546.56;4933202;29;19931;-86
2021/07/18 04:05:18;;;;;;;;;;;;;;;25.77;45.84;102540.88;4957854;29;19969;-89
2021/07/18 04:07:43;;;;;;;;;;;;;;;25.46;47.28;102539.84;4943624;29;19919;-91
2021/07/18 04:10:09;;;;;;;;;;;;;;;25.40;47.20;102540.34;4934067;29;19919;-89
2021/07/18 04:12:34;;;;;;;;;;;;;;;25.47;46.94;102542.47;4931487;29;19926;-90
2021/07/18 04:14:59;;;;;;;;;;;;;;;25.46;46.91;102542.59;4930400;29;19919;-88
2021/07/18 04:17:25;;;;;;;;;;;;;;;25.72;46.52;102548.69;4929649;29;20368;-86
2021/07/18 04:19:50;;;;;;;;;;;;;;;25.47;47.57;102545.25;4914318;29;19923;-90
2021/07/18 04:22:15;;;;;;;;;;;;;;;25.50;47.49;102549.66;4945184;29;19925;-92
2021/07/18 04:24:40;;;;;;;;;;;;;;;25.68;46.96;102549.97;4928581;29;19919;-93
2021/07/18 04:27:06;;;;;;;;;;;;;;;25.50;47.70;102549.66;4928170;29;19973;-90
2021/07/18 04:29:31;;;;;;;;;;;;;;;25.94;46.24;102539.41;4927666;29;19919;-90
2021/07/18 04:31:56;;;;;;;;;;;;;;;25.62;47.35;102548.59;4927064;29;19994;-91
2021/07/18 04:34:22;;;;;;;;;;;;;;;25.79;47.28;102549.06;4943261;29;19918;-90
2021/07/18 04:36:47;;;;;;;;;;;;;;;26.08;46.40;102542.91;4926510;29;19978;-89
2021/07/18 04:39:12;;;;;;;;;;;;;;;26.14;46.07;102547.91;4927475;29;20148;-91
2021/07/18 04:41:38;;;;;;;;;;;;;;;26.10;46.35;102547.28;4929843;29;19918;-86
2021/07/18 04:44:04;;;;;;;;;;;;;;;26.33;46.06;102544.38;4930517;29;19927;-88
2021/07/18 04:46:29;;;;;;;;;;;;;;;26.52;45.46;102552.84;4931565;29;19919;-86
2021/07/18 04:48:54;;;;;;;;;;;;;;;26.69;45.19;102547.72;4933690;29;19919;-90
2021/07/18 04:51:20;;;;;;;;;;;;;;;27.06;44.71;102550.81;4929771;29;19991;-89
2021/07/18 04:53:45;;;;;;;;;;;;;;;27.27;43.34;102547.09;4928295;29;20013;-89
2021/07/18 04:56:10;;;;;;;;;;;;;;;27.21;43.99;102548.53;4928165;29;19919;-90
2021/07/18 04:58:37;;;;;;;;;;;;;;;27.22;43.55;102555.88;4927858;29;19919;-90
2021/07/18 05:01:02;;;;;;;;;;;;;;;27.99;42.13;102563.66;4928406;29;19954;-89
2021/07/18 05:03:27;;;;;;;;;;;;;;;28.02;41.61;102552.22;4927329;29;19926;-90
2021/07/18 05:05:53;;;;;;;;;;;;;;;27.76;42.27;102550.00;4926788;29;20277;-91
2021/07/18 05:08:18;;;;;;;;;;;;;;;28.06;41.52;102545.34;4943688;29;20360;-90
2021/07/18 05:10:43;;;;;;;;;;;;;;;28.35;41.57;102547.22;4926809;29;19967;-89
2021/07/18 05:13:09;;;;;;;;;;;;;;;28.29;41.71;102546.81;4943981;29;19919;-87
2021/07/18 05:15:34;;;;;;;;;;;;;;;27.76;42.45;102545.34;4927641;29;19924;-89
2021/07/18 05:18:09;;;;;;;;;;;;;;;27.92;42.87;102547.50;4944489;29;19950;-88
2021/07/18 05:20:36;;;;;;;;;;;;;;;28.70;40.69;102552.16;4927093;29;19915;-89
2021/07/18 05:23:02;;;;;;;;;;;;;;;28.81;40.96;102548.31;4925800;29;20445;-90
2021/07/18 05:25:27;;;;;;;;;;;;;;;28.70;40.87;102542.91;4925681;29;19937;-89
2021/07/18 05:27:52;;;;;;;;;;;;;;;29.04;40.37;102539.56;4926074;29;20140;-90
2021/07/18 05:30:18;;;;;;;;;;;;;;;29.56;39.38;102541.78;4925444;29;19925;-90
2021/07/18 05:32:43;;;;;;;;;;;;;;;29.69;38.60;102543.13;4942567;29;19926;-90
2021/07/18 05:35:09;;;;;;;;;;;;;;;29.01;40.24;102542.66;4942134;29;19919;-92
2021/07/18 05:37:34;;;;;;;;;;;;;;;29.39;39.59;102535.16;4924931;29;20005;-89
2021/07/18 05:39:59;;;;;;;;;;;;;;;29.47;39.70;102536.13;4924755;29;20010;-89
2021/07/18 05:42:25;;;;;;;;;;;;;;;29.46;39.98;102544.66;4925089;29;19919;-88
2021/07/18 05:44:50;;;;;;;;;;;;;;;29.53;39.80;102542.97;4923644;29;19926;-88
2021/07/18 05:47:15;;;;;;;;;;;;;;;29.13;40.68;102544.22;4923423;29;19935;-88
2021/07/18 05:49:40;;;;;;;;;;;;;;;29.13;40.75;102545.09;4923537;29;20027;-89
2021/07/18 05:52:06;;;;;;;;;;;;;;;28.97;40.76;102548.53;4922982;29;19922;-89
2021/07/18 05:54:31;;;;;;;;;;;;;;;28.16;42.78;102539.75;4923679;29;19925;-86
2021/07/18 05:56:57;;;;;;;;;;;;;;;28.53;42.04;102545.41;4924994;29;19995;-85
2021/07/18 05:59:22;;;;;;;;;;;;;;;27.75;44.17;102548.25;4924307;29;20005;-87
2021/07/18 06:01:48;;;;;;;;;;;;;;;27.39;45.09;102551.53;4927791;29;19934;-87
2021/07/18 06:04:13;;;;;;;;;;;;;;;28.25;42.86;102548.13;4944974;29;19923;-87
2021/07/18 06:06:39;;;;;;;;;;;;;;;28.10;42.76;102544.91;4928143;29;19942;-88
2021/07/18 06:09:04;;;;;;;;;;;;;;;27.90;43.80;102551.47;4927613;29;20005;-87
2021/07/18 06:11:29;;;;;;;;;;;;;;;28.42;42.26;102546.47;4927645;29;20332;-89
2021/07/18 06:13:57;;;;;;;;;;;;;;;28.18;43.22;102544.16;4927904;29;20037;-88
2021/07/18 06:16:22;;;;;;;;;;;;;;;28.17;42.97;102538.75;4927337;29;19919;-88
2021/07/18 06:18:47;;;;;;;;;;;;;;;27.80;44.25;102547.81;4927374;29;19919;-87
2021/07/18 06:21:12;;;;;;;;;;;;;;;27.36;45.14;102545.41;4927733;29;19982;-86
2021/07/18 06:23:38;;;;;;;;;;;;;;;27.44;45.59;102541.91;4928019;29;19919;-87
2021/07/18 06:26:05;;;;;;;;;;;;;;;27.54;45.48;102543.69;4928909;29;20272;-87
2021/07/18 06:28:34;;;;;;;;;;;;;;;27.59;45.01;102549.69;4928217;29;19946;-90
2021/07/18 06:30:59;;;;;;;;;;;;;;;27.70;44.80;102547.78;4927687;29;20015;-90
2021/07/18 06:33:25;;;;;;;;;;;;;;;26.95;45.98;102550.03;4927099;29;19970;-89
2021/07/18 06:35:50;;;;;;;;;;;;;;;26.60;47.18;102548.50;4941705;29;19918;-90
2021/07/18 06:38:15;;;;;;;;;;;;;;;26.84;46.79;102546.38;4925331;29;20361;-90
2021/07/18 06:40:41;;;;;;;;;;;;;;;27.85;44.50;102546.34;4924454;29;19988;-89
2021/07/18 06:43:06;;;;;;;;;;;;;;;27.46;45.16;102545.41;4924402;29;19965;-91
2021/07/18 06:45:31;;;;;;;;;;;;;;;27.51;45.29;102541.19;4925438;29;19919;-87
2021/07/18 06:47:56;;;;;;;;;;;;;;;27.75;44.60;102559.38;4925272;29;19915;-88
2021/07/18 06:50:22;;;;;;;;;;;;;;;28.48;42.89;102552.50;4924334;29;19926;-92
2021/07/18 06:52:47;;;;;;;;;;;;;;;28.24;43.22;102545.50;4925359;29;19919;-90
2021/07/18 06:55:12;;;;;;;;;;;;;;;28.56;42.81;102535.91;4925231;29;20084;-89
2021/07/18 06:57:38;;;;;;;;;;;;;;;28.43;42.53;102539.03;4925930;29;19926;-87
2021/07/18 07:00:06;;;;;;;;;;;;;;;28.23;43.42;102541.84;4944180;29;19919;-89
2021/07/18 07:02:32;;;;;;;;;;;;;;;28.27;43.23;102543.28;4910293;29;20001;-90
2021/07/18 07:05:03;;;;;;;;;;;;;;;29.21;41.20;102549.03;4928282;29;19919;-88
2021/07/18 07:07:28;;;;;;;;;;;;;;;28.71;41.91;102558.59;4941686;29;20009;-88
2021/07/18 07:09:54;;;;;;;;;;;;;;;28.56;42.42;102553.47;4921413;29;19964;-86
2021/07/18 07:12:19;;;;;;;;;;;;;;;29.19;40.77;102549.16;4921763;29;20383;-90
2021/07/18 07:14:45;;;;;;;;;;;;;;;29.21;40.60;102555.50;4935359;29;19923;-88
2021/07/18 07:17:10;;;;;;;;;;;;;;;28.60;41.70;102549.41;4920233;29;19919;-88
2021/07/18 07:19:35;;;;;;;;;;;;;;;29.06;41.32;102551.44;4927191;29;19958;-87
2021/07/18 07:22:01;;;;;;;;;;;;;;;29.21;40.57;102555.50;4935180;29;19925;-86
2021/07/18 07:24:26;;;;;;;;;;;;;;;29.13;40.80;102553.44;4931831;29;19923;-89
2021/07/18 07:26:52;;;;;;;;;;;;;;;28.94;41.21;102551.63;4922481;29;19919;-88
2021/07/18 07:29:17;;;;;;;;;;;;;;;29.38;39.87;102541.75;4922066;29;20384;-87
2021/07/18 07:31:42;;;;;;;;;;;;;;;29.60;39.44;102555.25;4921215;29;19982;-89
2021/07/18 07:34:07;;;;;;;;;;;;;;;29.26;40.05;102555.03;4921125;29;20372;-90
2021/07/18 07:36:32;;;;;;;;;;;;;;;29.47;39.49;102557.53;4921002;29;20316;-88
2021/07/18 07:38:58;;;;;;;;;;;;;;;29.41;39.82;102552.59;4922919;29;19919;-86
2021/07/18 07:41:23;;;;;;;;;;;;;;;29.29;39.49;102563.06;4924457;29;19962;-88
2021/07/18 07:43:48;;;;;;;;;;;;;;;29.53;39.54;102559.69;4906506;29;19986;-86
2021/07/18 07:46:14;;;;;;;;;;;;;;;29.27;39.48;102549.28;4938449;29;19921;-86
2021/07/18 07:48:40;;;;;;;;;;;;;;;29.55;38.54;102551.16;4919746;29;19922;-87
2021/07/18 07:51:05;;;;;;;;;;;;;;;29.62;38.43;102547.63;4920383;29;19922;-88
2021/07/18 07:53:30;;;;;;;;;;;;;;;29.49;39.38;102555.50;4920877;29;19925;-89
2021/07/18 07:55:56;;;;;;;;;;;;;;;29.57;38.81;102544.41;4919823;29;20518;-93
2021/07/18 07:58:24;;;;;;;;;;;;;;;29.11;39.88;102549.94;4920565;29;19926;-92
2021/07/18 08:00:49;;;;;;;;;;;;;;;29.67;38.80;102555.50;4919933;29;19969;-93
2021/07/18 08:03:14;;;;;;;;;;;;;;;29.43;38.51;102556.13;4920397;29;19953;-93
2021/07/18 08:05:43;;;;;;;;;;;;;;;29.25;38.95;102553.28;4905582;29;19927;-93
2021/07/18 08:08:08;;;;;;;;;;;;;;;29.37;39.03;102560.41;4922128;29;20266;-93
2021/07/18 08:10:34;;;;;;;;;;;;;;;29.79;38.08;102554.25;4923602;29;19930;-90
2021/07/18 08:12:59;;;;;;;;;;;;;;;30.03;37.25;102555.56;4924516;29;19929;-94
2021/07/18 08:15:24;;;;;;;;;;;;;;;30.34;37.32;102558.75;4923169;29;20455;-92
2021/07/18 08:17:50;;;;;;;;;;;;;;;30.07;37.67;102561.69;4923300;29;19919;-93
2021/07/18 08:20:17;;;;;;;;;;;;;;;30.36;36.72;102551.13;4923330;29;19919;-91
2021/07/18 08:22:45;;;;;;;;;;;;;;;29.94;36.98;102554.59;4924434;29;19919;-92
2021/07/18 08:25:10;;;;;;;;;;;;;;;30.58;35.68;102548.84;4924636;29;19922;-90
2021/07/18 08:27:36;;;;;;;;;;;;;;;30.21;36.11;102550.81;4924608;29;19921;-91
2021/07/18 08:30:02;;;;;;;;;;;;;;;30.42;35.75;102544.00;4924908;29;19919;-93
2021/07/18 08:32:27;;;;;;;;;;;;;;;29.97;36.79;102545.91;4923279;29;20400;-93
2021/07/18 08:34:52;;;;;;;;;;;;;;;29.85;37.54;102548.06;4924318;29;19926;-88
2021/07/18 08:37:18;;;;;;;;;;;;;;;30.36;36.14;102534.38;4924259;29;20381;-90
2021/07/18 08:39:43;;;;;;;;;;;;;;;30.99;35.20;102535.13;4922152;29;20399;-86
2021/07/18 08:42:08;;;;;;;;;;;;;;;30.93;35.53;102539.47;4923067;29;20509;-86
2021/07/18 08:44:37;;;;;;;;;;;;;;;31.40;35.20;102535.31;4922012;29;19923;-89
2021/07/18 08:47:02;;;;;;;;;;;;;;;31.03;35.24;102536.56;4925119;29;20304;-90
2021/07/18 08:49:28;;;;;;;;;;;;;;;31.48;34.63;102539.16;4923938;29;19923;-91
2021/07/18 08:51:53;;;;;;;;;;;;;;;31.47;34.63;102531.84;4923226;29;19933;-87
2021/07/18 08:54:19;;;;;;;;;;;;;;;31.47;34.98;102537.44;4924112;29;19990;-86
2021/07/18 08:56:46;;;;;;;;;;;;;;;31.81;34.51;102534.53;4922525;29;19966;-86
2021/07/18 08:59:14;;;;;;;;;;;;;;;31.01;34.88;102535.88;4923310;29;20017;-91
2021/07/18 09:01:41;;;;;;;;;;;;;;;31.85;33.65;102537.88;4925653;29;19927;-91
2021/07/18 09:04:06;;;;;;;;;;;;;;;31.95;33.75;102528.25;4923514;29;19930;-92
2021/07/18 09:06:57;;;;;;;;;;;;;;;31.59;34.19;102530.50;4923080;29;20284;-87
2021/07/18 09:09:23;;;;;;;;;;;;;;;32.01;33.57;102534.19;4918330;29;19925;-87
2021/07/18 09:11:56;;;;;;;;;;;;;;;32.13;32.85;102530.91;4922886;29;19919;-85
2021/07/18 09:14:24;;;;;;;;;;;;;;;31.91;33.99;102528.78;4924043;29;19925;-87
2021/07/18 09:16:51;;;;;;;;;;;;;;;32.01;33.08;102521.09;4924473;29;19926;-89
2021/07/18 09:19:21;;;;;;;;;;;;;;;31.96;32.91;102520.72;4922861;29;19974;-87
2021/07/18 09:22:05;;;;;;;;;;;;;;;32.02;32.82;102525.63;4923106;29;19922;-86
2021/07/18 09:24:35;;;;;;;;;;;;;;;32.39;32.87;102527.03;4921261;29;19989;-84
2021/07/18 09:27:33;;;;;;;;;;;;;;;32.69;31.80;102535.78;4922075;29;19974;-86
2021/07/18 09:30:12;;;;;;;;;;;;;;;32.55;31.95;102520.56;4881838;29;19919;-85
2021/07/18 09:32:38;;;;;;;;;;;;;;;32.38;32.32;102525.28;4922999;29;19934;-86
2021/07/18 09:35:04;;;;;;;;;;;;;;;32.58;32.20;102530.50;4923028;29;19927;-86
2021/07/18 09:37:31;;;;;;;;;;;;;;;31.85;32.92;102526.69;4925652;29;19962;-86
2021/07/18 09:40:01;;;;;;;;;;;;;;;32.17;32.58;102523.03;4934998;29;19918;-87
2021/07/18 09:42:31;;;;;;;;;;;;;;;32.25;32.42;102511.84;4924763;29;19919;-86
2021/07/18 09:44:57;;;;;;;;;;;;;;;33.55;30.87;102517.19;4922849;29;19919;-87
2021/07/18 09:47:22;;;;;;;;;;;;;;;32.70;32.07;102511.41;4922812;29;20444;-86
2021/07/18 09:49:48;;;;;;;;;;;;;;;32.22;31.95;102515.00;4941672;29;19923;-87
2021/07/18 09:52:18;;;;;;;;;;;;;;;32.31;31.80;102513.94;4930057;29;19928;-83
2021/07/18 09:54:44;;;;;;;;;;;;;;;32.35;32.27;102510.78;4947743;29;20078;-85
2021/07/18 09:57:10;;;;;;;;;;;;;;;32.77;31.15;102518.06;4928681;29;20432;-88
2021/07/18 09:59:36;;;;;;;;;;;;;;;33.35;30.21;102507.47;4931072;29;19922;-90
2021/07/18 10:02:03;;;;;;;;;;;;;;;33.09;30.42;102508.63;4933776;29;19953;-86
2021/07/18 10:04:28;;;;;;;;;;;;;;;32.90;31.10;102511.88;4933275;29;19922;-90
2021/07/18 10:07:06;;;;;;;;;;;;;;;33.20;30.65;102511.06;4944324;29;20017;-83
2021/07/18 10:09:32;;;;;;;;;;;;;;;35.02;28.30;102512.34;4924479;29;19958;-85
2021/07/18 10:11:58;;;;;;;;;;;;;;;34.46;28.72;102508.03;4939407;29;19919;-86
2021/07/18 10:14:23;;;;;;;;;;;;;;;33.98;29.48;102515.84;4939346;29;19919;-86
2021/07/18 10:16:51;;;;;;;;;;;;;;;33.71;30.54;102516.19;4922266;29;20014;-89
2021/07/18 10:19:17;;;;;;;;;;;;;;;33.89;29.67;102510.28;4922386;29;20416;-88
2021/07/18 10:21:42;;;;;;;;;;;;;;;33.46;29.05;102515.47;4921929;29;19962;-89
2021/07/18 10:24:08;;;;;;;;;;;;;;;33.57;28.91;102514.19;4923119;29;19918;-87
2021/07/18 10:26:35;;;;;;;;;;;;;;;33.14;29.75;102508.09;4922136;29;19970;-85
2021/07/18 10:29:00;;;;;;;;;;;;;;;33.15;29.82;102513.50;4923281;29;19947;-86
2021/07/18 10:31:27;;;;;;;;;;;;;;;33.67;28.79;102509.22;4934185;29;19934;-83
2021/07/18 10:33:56;;;;;;;;;;;;;;;33.08;30.25;102498.50;4932833;29;19919;-84
2021/07/18 10:36:23;;;;;;;;;;;;;;;33.56;28.70;102501.19;4928652;29;20440;-89
2021/07/18 10:38:50;;;;;;;;;;;;;;;33.53;29.05;102513.69;4924277;29;20404;-86
2021/07/18 10:41:15;;;;;;;;;;;;;;;34.07;28.33;102498.72;4922694;29;20425;-87
2021/07/18 10:43:53;;;;;;;;;;;;;;;34.08;28.51;102496.78;4919164;29;20002;-86
2021/07/18 10:46:38;;;;;;;;;;;;;;;34.44;27.45;102493.31;4918210;29;19982;-87
2021/07/18 10:49:03;;;;;;;;;;;;;;;33.97;28.21;102491.63;4919638;29;20017;-84
2021/07/18 10:51:35;;;;;;;;;;;;;;;34.35;28.17;102488.81;4920335;29;19926;-86
2021/07/18 10:54:07;;;;;;;;;;;;;;;33.81;29.03;102487.03;4920766;29;20013;-87
2021/07/18 10:56:43;;;;;;;;;;;;;;;34.54;28.17;102479.81;4937615;29;19926;-86
2021/07/18 10:59:32;;;;;;;;;;;;;;;34.91;27.05;102483.63;4921095;29;19974;-87
2021/07/18 11:02:03;;;;;;;;;;;;;;;34.45;28.52;102492.22;4922021;29;20054;-89
2021/07/18 11:04:48;;;;;;;;;;;;;;;33.98;29.16;102482.13;4925509;29;20001;-87
2021/07/18 11:07:22;;;;;;;;;;;;;;;35.19;27.32;102482.88;4925919;29;19958;-86
2021/07/18 11:09:55;;;;;;;;;;;;;;;35.06;27.32;102479.94;4939455;29;19923;-88
2021/07/18 11:12:26;;;;;;;;;;;;;;;34.55;27.49;102473.16;4922322;29;19919;-86
2021/07/18 11:15:11;;;;;;;;;;;;;;;34.53;28.11;102480.91;4922438;29;20009;-88
2021/07/18 11:17:54;;;;;;;;;;;;;;;35.02;27.41;102471.00;4921683;29;19919;-87
2021/07/18 11:20:34;;;;;;;;;;;;;;;34.71;28.46;102477.72;4919953;29;19990;-86
2021/07/18 11:23:01;;;;;;;;;;;;;;;34.64;28.58;102476.75;4919308;29;19919;-85
2021/07/18 11:25:43;;;;;;;;;;;;;;;34.33;28.90;102480.59;4919819;29;19919;-87
2021/07/18 11:28:27;;;;;;;;;;;;;;;34.91;28.12;102469.56;4937229;29;20459;-85
2021/07/18 11:30:53;;;;;;;;;;;;;;;34.17;28.70;102470.38;4919539;29;19926;-85
2021/07/18 11:33:28;;;;;;;;;;;;;;;34.11;28.33;102470.25;4936754;29;19922;-88
2021/07/18 11:35:53;;;;;;;;;;;;;;;33.80;29.14;102474.91;4919689;29;19923;-84
2021/07/18 11:38:19;;;;;;;;;;;;;;;33.81;29.04;102467.38;4919721;29;20473;-85
2021/07/18 11:40:44;;;;;;;;;;;;;;;34.14;28.97;102467.94;4919140;29;20042;-85
2021/07/18 11:43:09;;;;;;;;;;;;;;;34.46;29.27;102465.88;4922417;29;20369;-87
2021/07/18 11:45:34;;;;;;;;;;;;;;;35.58;27.74;102461.94;4923378;29;19989;-87
2021/07/18 11:48:01;;;;;;;;;;;;;;;34.72;28.24;102470.13;4921911;29;19942;-85
2021/07/18 11:50:26;;;;;;;;;;;;;;;33.61;29.62;102478.19;4922182;29;19919;-86
2021/07/18 11:52:52;;;;;;;;;;;;;;;34.40;28.50;102469.47;4939334;29;19942;-85
2021/07/18 11:55:17;;;;;;;;;;;;;;;33.87;28.73;102470.28;4959040;29;19966;-85
2021/07/18 11:57:42;;;;;;;;;;;;;;;34.29;28.79;102464.31;4958976;29;19918;-86
2021/07/18 12:00:08;;;;;;;;;;;;;;;34.19;28.61;102457.00;4941921;29;19922;-85
2021/07/18 12:02:34;;;;;;;;;;;;;;;34.60;29.21;102464.13;4942557;29;19930;-83
2021/07/18 12:05:04;;;;;;;;;;;;;;;34.84;28.91;102454.53;4941419;29;19922;-85
2021/07/18 12:07:30;;;;;;;;;;;;;;;34.32;28.74;102466.72;4942080;29;20383;-83
2021/07/18 12:09:55;;;;;;;;;;;;;;;34.51;28.92;102457.72;4940833;29;19965;-83
2021/07/18 12:12:21;;;;;;;;;;;;;;;34.41;29.76;102457.16;4931918;29;20006;-87
2021/07/18 12:14:46;;;;;;;;;;;;;;;34.63;29.75;102462.88;4905331;29;19925;-87
2021/07/18 12:17:16;;;;;;;;;;;;;;;33.76;30.37;102462.34;4905088;29;19919;-88
2021/07/18 12:19:42;;;;;;;;;;;;;;;33.69;30.45;102455.69;4904511;29;19931;-86
2021/07/18 12:22:10;;;;;;;;;;;;;;;34.49;29.51;102450.56;4905314;29;19926;-84
2021/07/18 12:24:38;;;;;;;;;;;;;;;35.51;28.86;102446.03;4922033;29;19966;-89
2021/07/18 12:27:08;;;;;;;;;;;;;;;34.59;29.56;102449.22;4904755;29;19955;-87
2021/07/18 12:29:55;;;;;;;;;;;;;;;35.83;28.27;102453.13;4905451;29;19919;-87
2021/07/18 12:32:24;;;;;;;;;;;;;;;36.82;27.02;102445.59;4904701;29;20281;-87